Time;durP1;ratioP1;P1;durP2;ratioP2;P2;SDS_P1;SDS_P2;PMS_P1;PMS_P2;Temp;Humidity;BMP_temperature;BMP_pressure;BME280_temperature;BME280_humidity;BME280_pressure;Samples;Min_cycle;Max_cycle;Signal;HPM_P1;HPM_P2
2021/09/04 00:00:59;;;;;;;33.13;14.00;;;11.10;99.90;;;9.71;100.00;102074.91;5039607;28;20436;-76
2021/09/04 00:03:25;;;;;;;30.45;13.25;;;11.10;99.90;;;9.68;100.00;102074.97;5023557;28;20495;-76
2021/09/04 00:05:51;;;;;;;36.67;14.07;;;11.10;99.90;;;9.79;100.00;102094.03;5025601;28;20419;-76
2021/09/04 00:08:17;;;;;;;28.65;11.88;;;11.30;99.90;;;9.97;100.00;102119.91;5022481;28;20119;-76
2021/09/04 00:10:46;;;;;;;31.42;12.70;;;11.40;99.90;;;10.08;100.00;102127.56;5051056;28;20062;-76
2021/09/04 00:13:12;;;;;;;27.63;11.93;;;11.50;99.90;;;10.10;100.00;102117.88;5031332;28;20037;-76
2021/09/04 00:15:38;;;;;;;31.17;11.55;;;11.40;99.90;;;10.03;100.00;102111.03;5037371;28;20059;-76
2021/09/04 00:18:04;;;;;;;35.75;11.18;;;11.40;99.90;;;10.02;100.00;102107.53;5031809;28;20081;-76
2021/09/04 00:20:30;;;;;;;25.15;11.02;;;11.40;99.90;;;10.03;100.00;102109.25;5041386;28;20047;-77
2021/09/04 00:22:57;;;;;;;21.17;9.68;;;11.40;99.90;;;9.95;100.00;102100.66;5020559;28;20074;-76
2021/09/04 00:25:25;;;;;;;18.88;9.00;;;11.30;99.90;;;9.84;100.00;102085.13;5055864;28;20074;-76
2021/09/04 00:27:51;;;;;;;15.82;7.68;;;11.20;99.90;;;9.69;100.00;102058.28;5016405;28;20129;-76
2021/09/04 00:30:17;;;;;;;18.58;8.65;;;11.10;99.90;;;9.58;100.00;102059.38;5053782;28;20120;-76
2021/09/04 00:32:43;;;;;;;24.45;8.23;;;11.00;99.90;;;9.52;100.00;102046.34;5028283;28;20507;-76
2021/09/04 00:35:10;;;;;;;26.52;7.50;;;10.90;99.90;;;9.45;100.00;102063.16;5072723;28;20149;-77
2021/09/04 00:37:36;;;;;;;15.38;7.55;;;10.80;99.90;;;9.35;100.00;102052.00;5033162;28;20083;-76
2021/09/04 00:40:04;;;;;;;15.90;6.97;;;10.70;99.90;;;9.26;100.00;102039.00;5050284;28;20438;-76
2021/09/04 00:42:31;;;;;;;27.02;5.53;;;10.60;99.90;;;9.13;100.00;102025.25;5015942;28;20028;-76
2021/09/04 00:44:56;;;;;;;21.55;6.65;;;10.60;99.90;;;9.02;100.00;102008.84;5040233;28;20063;-76
2021/09/04 00:47:23;;;;;;;23.38;7.88;;;10.50;99.90;;;9.02;100.00;102014.09;5051857;28;20055;-76
2021/09/04 00:49:49;;;;;;;66.97;9.05;;;10.50;99.90;;;9.04;100.00;102021.03;5043468;28;20048;-76
2021/09/04 00:52:18;;;;;;;20.55;7.60;;;10.50;99.90;;;9.10;100.00;102024.47;5051733;28;20048;-76
2021/09/04 00:54:44;;;;;;;15.95;6.30;;;10.50;99.90;;;9.07;100.00;102033.28;5053441;28;20070;-76
2021/09/04 00:57:10;;;;;;;12.82;5.13;;;10.50;99.90;;;9.02;100.00;102025.47;5029200;28;20078;-76
2021/09/04 00:59:37;;;;;;;12.45;4.13;;;10.50;99.90;;;9.01;100.00;102025.50;5020199;28;20082;-77
2021/09/04 01:02:03;;;;;;;7.32;3.58;;;10.50;99.90;;;8.96;100.00;102027.34;5022203;28;20109;-76
2021/09/04 01:04:29;;;;;;;16.17;4.30;;;10.50;99.90;;;8.93;100.00;102022.16;5025823;28;20055;-76
2021/09/04 01:06:56;;;;;;;13.52;4.75;;;10.40;99.90;;;8.90;100.00;102023.09;5059919;28;20507;-76
2021/09/04 01:09:23;;;;;;;16.08;5.28;;;10.40;99.90;;;8.85;100.00;102021.44;5028531;28;20463;-76
2021/09/04 01:11:52;;;;;;;12.95;4.53;;;10.30;99.90;;;8.89;100.00;102026.59;5045323;28;20048;-77
2021/09/04 01:14:19;;;;;;;15.45;5.15;;;10.40;99.90;;;8.92;100.00;102025.66;5044009;28;21402;-76
2021/09/04 01:16:45;;;;;;;11.27;3.65;;;10.30;99.90;;;8.70;100.00;101999.78;5026546;28;20078;-76
2021/09/04 01:19:11;;;;;;;23.05;4.90;;;10.20;99.90;;;8.61;100.00;101994.72;5017891;28;20057;-76
2021/09/04 01:21:38;;;;;;;25.80;5.70;;;10.10;99.90;;;8.57;100.00;101987.78;5010922;28;20074;-76
2021/09/04 01:24:06;;;;;;;17.25;3.80;;;10.00;99.90;;;8.44;100.00;101978.41;5057403;28;20063;-76
2021/09/04 01:26:33;;;;;;;50.22;5.03;;;9.80;99.90;;;8.16;100.00;101948.25;5037309;28;20036;-76
2021/09/04 01:29:00;;;;;;;16.63;4.50;;;9.60;99.90;;;7.98;100.00;101933.66;5029781;28;20058;-76
2021/09/04 01:31:28;;;;;;;17.52;4.75;;;9.60;99.90;;;7.96;100.00;101940.69;5044148;28;20108;-76
2021/09/04 01:33:55;;;;;;;11.63;5.13;;;9.50;99.90;;;7.98;100.00;101967.75;5050416;28;20067;-76
2021/09/04 01:36:37;;;;;;;11.73;5.88;;;9.50;99.90;;;8.06;100.00;101986.00;5042382;28;20533;-76
2021/09/04 01:39:06;;;;;;;16.23;6.60;;;9.60;99.90;;;8.13;100.00;101984.16;5043989;28;20117;-76
2021/09/04 01:41:33;;;;;;;12.93;6.13;;;9.70;99.90;;;8.18;100.00;101988.41;5066294;28;20067;-77
2021/09/04 01:44:00;;;;;;;13.75;5.97;;;9.80;99.90;;;8.30;100.00;102016.22;5006068;28;20510;-76
2021/09/04 01:46:27;;;;;;;17.42;5.90;;;9.80;99.90;;;8.39;100.00;102026.56;5004879;28;20177;-76
2021/09/04 01:48:56;;;;;;;17.02;6.82;;;9.90;99.90;;;8.49;100.00;102037.81;5064618;28;20051;-76
2021/09/04 01:51:22;;;;;;;21.00;6.70;;;10.10;99.90;;;8.61;100.00;102041.97;5024988;28;20052;-76
2021/09/04 01:53:48;;;;;;;27.23;9.38;;;10.20;99.90;;;8.81;100.00;102066.16;5055398;28;20431;-76
2021/09/04 01:56:14;;;;;;;31.25;10.07;;;10.50;99.90;;;9.11;100.00;102099.75;5052352;28;20427;-76
2021/09/04 01:58:40;;;;;;;24.88;9.93;;;10.70;99.90;;;9.32;100.00;102109.84;5050249;28;20810;-76
2021/09/04 02:01:15;;;;;;;54.25;13.20;;;11.00;99.90;;;9.64;100.00;102134.66;5042904;28;20159;-76
2021/09/04 02:03:41;;;;;;;37.03;10.55;;;11.10;99.90;;;9.72;100.00;102135.38;5019592;28;20089;-76
2021/09/04 02:06:07;;;;;;;36.35;7.90;;;11.10;99.90;;;9.50;100.00;102103.38;5065592;28;20437;-76
2021/09/04 02:08:33;;;;;;;23.90;8.00;;;11.00;99.90;;;9.37;100.00;102097.50;5026813;28;20441;-76
2021/09/04 02:11:00;;;;;;;32.38;8.18;;;10.80;99.90;;;9.26;100.00;102083.69;5051758;28;20051;-76
2021/09/04 02:13:28;;;;;;;23.50;8.00;;;10.70;99.90;;;9.23;100.00;102081.13;5040425;28;20492;-77
2021/09/04 02:15:55;;;;;;;18.30;7.30;;;10.80;99.90;;;9.26;100.00;102083.69;5043455;28;20526;-76
2021/09/04 02:18:21;;;;;;;16.40;7.10;;;10.80;99.90;;;9.26;100.00;102081.06;5042068;28;20048;-76
2021/09/04 02:20:48;;;;;;;15.50;7.40;;;10.80;99.90;;;9.24;100.00;102086.38;5025491;28;20032;-76
2021/09/04 02:23:16;;;;;;;14.77;6.40;;;10.80;99.90;;;9.23;100.00;102084.63;5041242;28;20059;-76
2021/09/04 02:25:42;;;;;;;12.85;6.88;;;10.70;99.90;;;9.21;100.00;102091.66;5032246;28;20165;-76
2021/09/04 02:28:11;;;;;;;98.57;8.93;;;10.70;99.90;;;9.21;100.00;102081.16;5043172;28;20120;-76
2021/09/04 02:30:37;;;;;;;33.60;8.27;;;10.80;99.90;;;9.30;100.00;102095.03;5038152;28;20067;-76
2021/09/04 02:33:03;;;;;;;288.27;12.15;;;10.80;99.90;;;9.41;100.00;102106.19;5051817;28;20054;-77
2021/09/04 02:35:29;;;;;;;142.90;10.45;;;10.90;99.90;;;9.50;100.00;102120.91;5033370;28;20404;-77
2021/09/04 02:37:55;;;;;;;105.50;10.32;;;11.00;99.90;;;9.51;100.00;102115.63;5016165;28;20036;-77
2021/09/04 02:40:23;;;;;;;73.35;10.10;;;11.00;99.90;;;9.53;100.00;102112.97;5031649;28;20044;-76
2021/09/04 02:42:49;;;;;;;25.83;10.30;;;11.00;99.90;;;9.51;100.00;102110.38;5043733;28;21480;-76
2021/09/04 02:45:15;;;;;;;23.85;10.35;;;11.00;99.90;;;9.51;100.00;102110.38;5022329;28;20100;-77
2021/09/04 02:47:41;;;;;;;32.70;7.97;;;11.00;99.90;;;9.53;100.00;102112.97;5015937;28;21452;-77
2021/09/04 02:50:08;;;;;;;50.20;6.57;;;11.00;99.90;;;9.60;100.00;102120.69;5066881;28;20047;-77
2021/09/04 02:52:34;;;;;;;37.08;6.72;;;11.10;99.90;;;9.68;100.00;102131.06;5033074;28;20150;-77
2021/09/04 02:55:02;;;;;;;16.58;6.82;;;11.10;99.90;;;9.70;100.00;102139.81;5020759;28;20074;-77
2021/09/04 02:57:28;;;;;;;21.17;6.70;;;11.20;99.90;;;9.72;100.00;102129.22;5025442;28;20588;-77
2021/09/04 02:59:54;;;;;;;46.42;7.90;;;11.20;99.90;;;9.81;100.00;102144.84;5045330;28;20066;-77
2021/09/04 03:02:20;;;;;;;34.63;7.93;;;11.30;99.90;;;9.89;100.00;102144.66;5057338;28;20054;-76
2021/09/04 03:04:46;;;;;;;28.55;8.18;;;11.40;99.90;;;9.94;100.00;102151.56;5051094;28;20078;-76
2021/09/04 03:07:12;;;;;;;38.78;7.88;;;13.00;99.90;;;9.98;100.00;102152.38;5041483;28;20384;-76
2021/09/04 03:09:39;;;;;;;36.13;9.15;;;11.40;99.90;;;10.02;100.00;102154.03;5036015;28;20131;-76
2021/09/04 03:12:05;;;;;;;40.17;8.95;;;11.50;99.90;;;10.07;100.00;102153.03;5026143;28;20137;-76
2021/09/04 03:14:31;;;;;;;41.38;8.60;;;11.50;99.90;;;10.12;100.00;102152.94;5023051;28;20086;-77
2021/09/04 03:16:57;;;;;;;79.75;7.75;;;11.50;99.90;;;10.04;100.00;102139.97;5039835;28;20071;-77
2021/09/04 03:19:23;;;;;;;88.47;7.50;;;11.40;99.90;;;10.03;100.00;102151.38;5040920;28;20058;-76
2021/09/04 03:21:49;;;;;;;73.13;6.93;;;11.40;99.90;;;9.96;100.00;102139.25;5031308;28;20040;-77
2021/09/04 03:24:15;;;;;;;30.58;7.10;;;11.30;99.90;;;9.96;100.00;102141.03;5056377;28;20514;-76
2021/09/04 03:26:41;;;;;;;57.67;6.95;;;11.40;99.90;;;9.94;100.00;102203.34;5040677;28;20441;-77
2021/09/04 03:29:09;;;;;;;35.10;6.90;;;11.40;99.90;;;9.94;100.00;102151.56;5070694;28;20051;-77
2021/09/04 03:31:35;;;;;;;58.58;6.85;;;11.40;99.90;;;9.97;100.00;102155.91;5046719;28;20078;-76
2021/09/04 03:34:01;;;;;;;85.40;7.15;;;11.40;99.90;;;9.99;100.00;102162.84;5040160;28;20057;-77
2021/09/04 03:36:27;;;;;;;87.88;6.90;;;11.40;99.90;;;9.99;100.00;102154.97;5040879;28;20071;-76
2021/09/04 03:38:53;;;;;;;68.13;7.82;;;11.40;99.90;;;10.02;100.00;102162.81;5042422;28;20510;-77
2021/09/04 03:41:19;;;;;;;46.08;7.00;;;11.50;99.90;;;10.10;100.00;102167.03;5022872;28;20097;-76
2021/09/04 03:43:45;;;;;;;45.97;7.78;;;11.50;99.90;;;10.11;100.00;102176.66;5007560;28;20039;-77
2021/09/04 03:46:11;;;;;;;63.92;7.80;;;11.50;99.90;;;10.10;100.00;102164.41;5042659;28;20499;-77
2021/09/04 03:48:39;;;;;;;92.93;11.25;;;11.50;99.90;;;10.07;100.00;102149.53;5044041;28;20035;-77
2021/09/04 03:51:05;;;;;;;52.25;11.43;;;11.50;99.90;;;10.08;100.00;102153.91;5033620;28;20107;-77
2021/09/04 03:53:33;;;;;;;61.40;11.38;;;11.50;99.90;;;10.08;100.00;102172.31;5047655;28;20047;-77
2021/09/04 03:55:59;;;;;;;90.35;24.05;;;11.50;99.90;;;10.04;100.00;102163.66;5016731;28;20033;-76
2021/09/04 03:58:25;;;;;;;68.97;22.02;;;11.40;99.90;;;10.00;100.00;102229.50;5050119;28;20159;-76
2021/09/04 04:00:51;;;;;;;71.05;20.25;;;11.40;99.90;;;10.00;100.00;102146.19;5024160;28;20067;-77
2021/09/04 04:03:17;;;;;;;96.93;9.77;;;11.50;99.90;;;9.99;100.00;102148.84;5027381;28;20380;-77
2021/09/04 04:05:43;;;;;;;25.00;9.00;;;11.40;99.90;;;9.99;100.00;102149.69;5034129;28;20074;-76
2021/09/04 04:08:09;;;;;;;52.47;16.27;;;11.40;99.90;;;9.99;100.00;102144.44;5025223;28;20069;-76
2021/09/04 04:10:35;;;;;;;119.30;8.15;;;11.40;99.90;;;10.01;100.00;102157.56;5040127;28;20033;-76
2021/09/04 04:13:01;;;;;;;73.30;7.25;;;11.40;99.90;;;10.05;100.00;102156.59;5023161;28;20029;-76
2021/09/04 04:15:27;;;;;;;140.68;7.28;;;11.50;99.90;;;10.06;100.00;102161.84;5050457;28;20033;-77
2021/09/04 04:17:54;;;;;;;56.47;8.43;;;11.50;99.90;;;10.09;100.00;102165.31;5039213;28;20043;-77
2021/09/04 04:20:20;;;;;;;86.03;8.02;;;11.50;99.90;;;10.09;100.00;102166.16;5028287;28;20069;-77
2021/09/04 04:22:46;;;;;;;56.88;7.90;;;11.60;99.90;;;10.13;100.00;102164.31;5037710;28;20411;-76
2021/09/04 04:25:12;;;;;;;51.83;7.20;;;11.60;99.90;;;10.14;100.00;102163.44;5033597;28;20522;-77
2021/09/04 04:27:38;;;;;;;20.75;8.38;;;11.60;99.90;;;10.16;100.00;102172.16;5034226;28;20488;-77
2021/09/04 04:30:06;;;;;;;56.55;8.38;;;11.60;99.90;;;10.18;100.00;102176.50;5030171;28;20142;-77
2021/09/04 04:32:32;;;;;;;52.55;6.57;;;11.60;99.90;;;10.24;100.00;102176.38;5040678;28;20028;-77
2021/09/04 04:34:58;;;;;;;90.57;7.88;;;11.70;99.90;;;10.29;100.00;102176.28;5046412;28;22228;-76
2021/09/04 04:37:24;;;;;;;22.77;6.40;;;11.70;99.90;;;10.31;100.00;102189.44;5022891;28;20125;-77
2021/09/04 04:39:50;;;;;;;30.48;6.57;;;11.80;99.90;;;10.36;100.00;102190.19;5024752;28;20472;-77
2021/09/04 04:42:17;;;;;;;45.13;6.10;;;11.70;99.90;;;10.39;100.00;102196.25;5056183;28;20073;-77
2021/09/04 04:44:43;;;;;;;50.10;6.50;;;11.70;99.90;;;10.36;100.00;102191.03;5033282;28;20025;-77
2021/09/04 04:47:09;;;;;;;55.83;6.35;;;11.80;99.90;;;10.44;100.00;102197.00;5031307;28;20481;-77
2021/09/04 04:49:35;;;;;;;34.58;7.10;;;11.90;99.90;;;10.51;100.00;102200.38;5021116;28;20057;-77
2021/09/04 04:52:01;;;;;;;36.78;7.20;;;11.90;99.90;;;10.56;100.00;102216.06;5030362;28;20058;-77
2021/09/04 04:54:27;;;;;;;50.70;6.43;;;12.00;99.90;;;10.62;100.00;102213.28;5040102;28;20065;-77
2021/09/04 04:56:54;;;;;;;66.40;7.15;;;12.00;99.90;;;10.68;100.00;102221.91;5037798;28;20098;-77
2021/09/04 04:59:20;;;;;;;34.70;6.68;;;12.00;99.90;;;10.72;100.00;102233.25;5041045;28;20021;-77
2021/09/04 05:01:46;;;;;;;28.05;6.30;;;12.10;99.90;;;10.77;100.00;102234.00;5057411;28;20554;-77
2021/09/04 05:04:12;;;;;;;28.15;6.68;;;12.20;99.90;;;10.85;100.00;102241.75;5051133;28;20063;-77
2021/09/04 05:06:38;;;;;;;21.17;5.90;;;12.30;99.90;;;10.94;100.00;102248.56;5030150;28;20033;-77
2021/09/04 05:09:04;;;;;;;22.55;6.05;;;12.30;99.90;;;10.97;100.00;102249.38;5023247;28;20036;-77
2021/09/04 05:11:30;;;;;;;33.75;5.72;;;12.30;99.90;;;10.92;100.00;102238.03;5041460;28;20078;-77
2021/09/04 05:13:56;;;;;;;30.80;5.80;;;12.20;99.90;;;10.86;100.00;102228.53;5039302;28;20582;-77
2021/09/04 05:16:22;;;;;;;22.63;6.28;;;12.20;99.90;;;10.90;100.00;102234.59;5013905;28;20037;-77
2021/09/04 05:18:48;;;;;;;32.60;6.70;;;12.30;99.90;;;10.97;100.00;102240.56;5024799;28;20112;-77
2021/09/04 05:21:14;;;;;;;23.45;7.20;;;12.30;99.90;;;11.04;100.00;102253.56;5014682;28;20476;-77
2021/09/04 05:23:40;;;;;;;26.80;6.82;;;12.40;99.90;;;11.10;100.00;102255.22;5037686;28;20033;-77
2021/09/04 05:26:06;;;;;;;26.63;6.88;;;12.40;99.90;;;11.17;100.00;102266.47;5020765;28;20055;-77
2021/09/04 05:28:32;;;;;;;24.55;9.02;;;12.50;99.90;;;11.23;100.00;102264.53;5031212;28;20392;-77
2021/09/04 05:31:00;;;;;;;35.13;9.45;;;12.60;99.90;;;11.36;100.00;102280.03;5038752;28;21312;-77
2021/09/04 05:33:27;;;;;;;25.92;7.95;;;12.70;99.90;;;11.45;100.00;102282.47;5037530;28;20032;-77
2021/09/04 05:35:53;;;;;;;33.20;9.32;;;12.70;99.90;;;11.46;100.00;102282.41;5023953;28;20091;-77
2021/09/04 05:38:20;;;;;;;29.02;8.98;;;12.80;99.90;;;11.52;100.00;102281.41;5043967;28;20066;-77
2021/09/04 05:40:47;;;;;;;37.95;9.93;;;12.80;99.90;;;11.55;100.00;102278.66;5043940;28;20116;-77
2021/09/04 05:43:13;;;;;;;34.85;8.77;;;12.90;99.90;;;11.60;100.00;102287.34;5017294;28;20040;-77
2021/09/04 05:45:42;;;;;;;25.35;9.55;;;12.90;99.90;;;11.65;100.00;102284.59;5054287;28;20526;-77
2021/09/04 05:48:08;;;;;;;30.60;9.90;;;13.10;99.90;;;11.76;100.00;102306.28;5057468;28;20063;-77
2021/09/04 05:50:34;;;;;;;36.53;9.30;;;13.10;99.90;;;11.82;100.00;102302.63;5053786;28;20041;-77
2021/09/04 05:53:00;;;;;;;29.60;9.48;;;13.10;99.90;;;11.88;100.00;102306.00;5055723;28;20036;-76
2021/09/04 05:55:26;;;;;;;28.27;8.93;;;13.20;99.90;;;11.92;100.00;102301.47;5049984;28;20047;-77
2021/09/04 05:57:52;;;;;;;27.65;8.60;;;13.20;99.90;;;12.00;100.00;102303.91;5033503;28;20484;-77
2021/09/04 06:00:19;;;;;;;30.67;9.20;;;13.30;99.90;;;12.03;100.00;102309.09;5049788;28;20029;-77
2021/09/04 06:02:45;;;;;;;40.58;9.38;;;14.40;99.90;;;12.02;100.00;102296.81;5029422;28;20016;-77
2021/09/04 06:05:11;;;;;;;40.47;8.90;;;13.30;99.90;;;12.06;100.00;102299.31;5020882;28;20027;-77
2021/09/04 06:07:37;;;;;;;27.50;9.50;;;13.40;99.90;;;12.11;100.00;102307.97;5042970;28;20027;-77
2021/09/04 06:10:05;;;;;;;35.95;9.85;;;13.50;99.90;;;12.10;100.00;102305.41;5025373;28;20036;-77
2021/09/04 06:12:31;;;;;;;37.03;11.40;;;13.50;99.90;;;12.18;100.00;102326.28;5019141;28;20055;-77
2021/09/04 06:14:57;;;;;;;39.03;9.73;;;13.60;99.90;;;12.24;100.00;102323.50;5040513;28;20071;-77
2021/09/04 06:17:23;;;;;;;39.75;10.02;;;13.60;99.90;;;12.29;100.00;102327.75;5030361;28;20473;-77
2021/09/04 06:19:49;;;;;;;42.40;9.90;;;13.60;99.90;;;12.35;100.00;102331.09;5034336;28;20495;-77
2021/09/04 06:22:15;;;;;;;47.90;10.48;;;13.60;99.90;;;12.34;100.00;102318.81;5068751;28;20025;-77
2021/09/04 06:24:41;;;;;;;42.05;10.57;;;13.70;99.90;;;12.38;100.00;102325.75;5030663;28;20033;-77
2021/09/04 06:27:07;;;;;;;33.75;8.88;;;13.70;99.90;;;12.38;100.00;102326.63;5018432;28;20062;-77
2021/09/04 06:29:33;;;;;;;38.05;9.52;;;13.70;99.90;;;12.42;100.00;102324.72;5061061;28;20021;-77
2021/09/04 06:31:59;;;;;;;25.63;8.45;;;13.70;99.90;;;12.44;100.00;102321.16;5041060;28;20021;-77
2021/09/04 06:34:25;;;;;;;33.65;9.18;;;13.70;99.90;;;12.47;100.00;102330.75;5041558;28;20537;-77
2021/09/04 06:36:51;;;;;;;31.55;9.63;;;13.80;99.90;;;12.54;100.00;102337.59;5032059;28;20491;-77
2021/09/04 06:39:17;;;;;;;40.28;9.95;;;14.00;99.90;;;12.63;100.00;102342.59;5022238;28;20032;-77
2021/09/04 06:41:43;;;;;;;36.90;9.95;;;14.10;99.90;;;12.79;100.00;102358.03;5050294;28;20045;-77
2021/09/04 06:44:09;;;;;;;35.42;9.82;;;14.30;99.90;;;13.02;100.00;102384.59;5033021;28;20212;-77
2021/09/04 06:46:35;;;;;;;37.95;10.07;;;14.60;99.90;;;13.42;100.00;102422.25;5060183;28;20055;-77
2021/09/04 06:49:01;;;;;;;39.03;10.65;;;15.00;99.90;;;13.99;100.00;102457.44;5026853;28;20021;-77
2021/09/04 06:51:29;;;;;;;40.25;12.00;;;15.70;99.90;;;14.82;100.00;102504.97;5039944;28;20028;-77
2021/09/04 06:53:55;;;;;;;35.20;9.98;;;16.30;99.90;;;15.31;100.00;102543.84;5034042;28;20016;-77
2021/09/04 06:56:21;;;;;;;33.20;8.98;;;16.70;99.90;;;15.46;100.00;102522.91;5041944;28;20485;-78
2021/09/04 06:58:47;;;;;;;19.65;7.88;;;16.70;99.90;;;14.97;100.00;102454.88;5006329;28;20464;-77
2021/09/04 07:01:13;;;;;;;24.23;9.23;;;16.40;99.90;;;14.77;100.00;102434.41;5047405;28;20041;-77
2021/09/04 07:03:39;;;;;;;31.38;10.10;;;16.30;99.90;;;14.49;100.00;102402.72;5045690;28;20114;-77
2021/09/04 07:06:05;;;;;;;32.33;10.15;;;15.80;99.90;;;14.17;100.00;102372.06;5050994;28;20021;-77
2021/09/04 07:08:31;;;;;;;29.30;10.27;;;15.70;99.90;;;14.26;100.00;102392.06;5015614;28;20040;-77
2021/09/04 07:10:57;;;;;;;36.83;10.57;;;15.70;99.90;;;14.34;100.00;102408.53;5001345;28;20031;-77
2021/09/04 07:13:23;;;;;;;32.72;10.35;;;16.10;99.90;;;15.04;100.00;102478.53;5048068;28;20419;-76
2021/09/04 07:15:49;;;;;;;29.20;10.27;;;16.40;99.90;;;15.32;100.00;102504.88;5039448;28;20044;-77
2021/09/04 07:18:15;;;;;;;32.70;9.73;;;16.80;99.90;;;15.53;100.00;102509.34;5046227;28;20073;-77
2021/09/04 07:20:41;;;;;;;30.55;9.10;;;16.80;99.90;;;15.30;100.00;102470.44;5035846;28;20029;-77
2021/09/04 07:23:07;;;;;;;24.63;8.73;;;16.80;99.90;;;15.43;100.00;102491.19;5040941;28;20472;-77
2021/09/04 07:25:33;;;;;;;23.55;8.88;;;16.90;99.90;;;15.44;100.00;102490.25;5041005;28;20036;-77
2021/09/04 07:27:59;;;;;;;25.83;8.20;;;17.00;99.90;;;15.88;100.00;102551.41;5043723;28;20032;-76
2021/09/04 07:30:25;;;;;;;23.67;8.38;;;17.30;99.90;;;16.07;100.00;102581.63;5064395;28;20044;-77
2021/09/04 07:32:54;;;;;;;22.77;8.45;;;17.70;99.90;;;17.02;99.19;102641.50;5023640;28;20043;-76
2021/09/04 07:35:20;;;;;;;15.80;6.57;;;18.60;99.90;;;17.74;93.71;102634.72;5015196;28;20079;-76
2021/09/04 07:37:46;;;;;;;21.52;6.43;;;19.00;99.90;;;17.57;90.69;102605.34;5044355;28;20119;-76
2021/09/04 07:40:13;;;;;;;25.40;7.40;;;18.90;99.90;;;17.39;91.00;102604.41;5024018;28;20304;-77
2021/09/04 07:42:39;;;;;;;16.30;6.88;;;19.00;99.90;;;17.80;89.81;102630.94;5060742;28;20028;-77
2021/09/04 07:45:06;;;;;;;18.52;6.95;;;19.50;99.90;;;18.68;86.48;102656.88;5037936;28;20082;-77
2021/09/04 07:47:32;;;;;;;17.23;6.47;;;20.00;99.90;;;18.81;82.25;102662.50;5038784;28;20105;-77
2021/09/04 07:49:58;;;;;;;17.27;6.50;;;20.40;99.90;;;19.24;80.10;102850.78;5030932;28;20353;-77
2021/09/04 07:52:24;;;;;;;12.15;5.93;;;21.30;99.90;;;20.78;75.71;102895.41;5067526;28;20135;-77
2021/09/04 07:54:50;;;;;;;20.20;6.82;;;22.20;99.90;;;21.43;71.73;102815.75;5029006;28;20052;-77
2021/09/04 07:57:16;;;;;;;15.23;5.65;;;22.00;99.90;;;20.15;74.38;102680.31;5049138;28;20481;-77
2021/09/04 07:59:42;;;;;;;15.15;4.93;;;21.70;99.90;;;19.71;77.85;102635.53;5049487;28;20522;-77
2021/09/04 08:02:08;;;;;;;15.57;6.00;;;20.70;99.90;;;18.24;82.10;102523.97;5056595;28;20047;-77
2021/09/04 08:04:37;;;;;;;16.45;6.75;;;19.90;99.90;;;17.74;87.31;102504.19;5052579;28;24197;-77
2021/09/04 08:07:03;;;;;;;21.80;6.50;;;19.80;99.90;;;18.27;85.38;102554.94;5054199;28;20027;-77
2021/09/04 08:09:30;;;;;;;22.85;7.03;;;19.50;99.90;;;17.80;89.04;102503.88;5043937;28;20105;-77
2021/09/04 08:11:56;;;;;;;25.55;8.13;;;18.90;99.90;;;16.95;91.04;102439.59;5024411;28;20938;-77
2021/09/04 08:14:22;;;;;;;18.92;7.45;;;18.50;99.90;;;16.75;92.91;102437.81;5047210;28;20028;-77
2021/09/04 08:16:48;;;;;;;20.33;6.85;;;18.40;99.90;;;16.77;92.49;102442.13;5049109;28;20040;-77
2021/09/04 08:19:14;;;;;;;19.58;7.55;;;18.10;99.90;;;16.55;93.13;102413.00;5004285;28;20024;-77
2021/09/04 08:21:42;;;;;;;23.85;7.78;;;17.70;99.90;;;16.31;96.82;102409.63;5039464;28;20096;-77
2021/09/04 08:24:08;;;;;;;30.90;8.15;;;17.80;99.90;;;16.45;95.74;102438.25;5038596;28;20082;-77
2021/09/04 08:26:34;;;;;;;23.80;7.57;;;17.90;99.90;;;16.62;94.44;102448.16;5046583;28;20044;-77
2021/09/04 08:29:00;;;;;;;21.63;8.30;;;17.80;99.90;;;16.44;95.04;102428.56;5049354;28;20464;-77
2021/09/04 08:31:26;;;;;;;21.55;7.78;;;17.90;99.90;;;16.69;95.10;102454.06;5032120;28;20028;-77
2021/09/04 08:33:53;;;;;;;18.65;7.75;;;18.00;99.90;;;16.84;94.15;102471.16;5012929;28;20527;-77
2021/09/04 08:36:19;;;;;;;21.63;7.38;;;18.50;99.90;;;17.86;91.16;102565.84;5023921;28;20032;-77
2021/09/04 08:38:45;;;;;;;22.52;6.82;;;18.90;99.90;;;17.69;88.49;102522.19;5010553;28;20481;-77
2021/09/04 08:41:11;;;;;;;21.85;7.18;;;18.90;99.90;;;17.47;89.18;102980.41;5039204;28;20048;-77
2021/09/04 08:43:37;;;;;;;20.88;6.72;;;18.80;99.90;;;17.32;88.98;102768.00;5038505;28;20017;-77
2021/09/04 08:46:03;;;;;;;20.77;7.70;;;18.70;99.90;;;17.04;89.79;102608.63;5031568;28;20100;-77
2021/09/04 08:48:32;;;;;;;21.05;6.60;;;18.30;99.90;;;16.74;91.74;102603.69;5049084;28;20032;-77
2021/09/04 08:50:58;;;;;;;14.93;6.18;;;18.40;99.90;;;17.60;90.34;102658.47;5037584;28;20040;-77
2021/09/04 08:53:26;;;;;;;19.90;6.30;;;19.40;99.90;;;18.81;80.15;102788.81;5064426;28;20037;-77
2021/09/04 08:55:52;;;;;;;18.42;6.20;;;20.50;99.90;;;20.63;78.74;102841.75;5006086;28;20029;-78
2021/09/04 08:58:18;;;;;;;15.50;5.28;;;21.60;99.90;;;21.54;71.86;102892.00;5014706;28;20024;-77
2021/09/04 09:00:58;;;;;;;15.95;5.47;;;22.10;99.90;;;20.57;71.74;102835.84;5042512;28;20055;-77
2021/09/04 09:03:39;;;;;;;13.32;5.38;;;21.60;99.90;;;20.24;75.87;102719.06;5012329;28;20036;-77
2021/09/04 09:06:06;;;;;;;19.20;6.63;;;21.40;99.90;;;19.68;76.56;102643.69;5006515;28;20047;-77
2021/09/04 09:08:47;;;;;;;17.73;6.13;;;20.90;99.90;;;18.78;79.60;102561.25;5007392;28;20044;-77
2021/09/04 09:11:51;;;;;;;14.07;5.45;;;19.90;99.90;;;17.79;83.09;102581.22;4995246;28;20106;-77
2021/09/04 09:15:11;;;;;;;20.08;6.63;;;19.20;99.90;;;17.50;85.38;102518.69;4992015;28;20041;-77
2021/09/04 09:18:44;;;;;;;17.17;5.93;;;19.10;99.90;;;17.68;85.71;102515.13;5009058;28;20039;-77
2021/09/04 09:21:20;;;;;;;19.40;6.57;;;18.90;99.90;;;17.30;86.22;102464.59;5018028;28;20033;-78
2021/09/04 09:24:58;;;;;;;18.00;6.07;;;18.70;99.90;;;17.33;87.35;102781.25;5013355;28;20040;-77
2021/09/04 09:28:47;;;;;;;20.75;6.30;;;18.80;99.90;;;17.85;86.05;102631.59;5009355;28;20493;-77
2021/09/04 09:32:23;;;;;;;13.90;5.75;;;19.20;99.90;;;18.43;83.45;102647.44;5019212;28;20041;-77
2021/09/04 09:35:28;;;;;;;18.67;5.78;;;20.20;99.90;;;19.87;77.15;102721.97;5015728;28;20508;-77
2021/09/04 09:38:35;;;;;;;15.02;5.53;;;20.80;99.90;;;19.30;79.49;102613.69;5002167;28;20051;-77
2021/09/04 09:42:38;;;;;;;13.35;4.60;;;20.50;99.90;;;18.73;80.15;102550.78;5010968;28;20039;-77
2021/09/04 09:45:48;;;;;;;16.23;4.68;;;20.20;99.90;;;18.80;81.48;102583.38;5015237;28;20052;-77
2021/09/04 09:49:03;;;;;;;19.77;5.18;;;20.40;99.90;;;19.61;79.68;102650.28;5044611;28;20043;-77
2021/09/04 09:52:43;;;;;;;12.38;4.72;;;21.00;99.90;;;20.59;74.35;102721.59;5006788;28;20041;-77
2021/09/04 09:56:00;;;;;;;16.58;4.57;;;21.60;99.90;;;20.33;71.40;102646.31;4982867;28;20038;-77
2021/09/04 09:58:47;;;;;;;15.02;4.82;;;21.30;99.90;;;19.54;73.91;102579.44;5009971;28;20039;-78
2021/09/04 10:02:14;;;;;;;11.63;4.88;;;20.70;99.90;;;18.93;75.41;102519.56;5003244;28;20037;-78
2021/09/04 10:05:30;;;;;;;15.82;4.97;;;20.50;99.90;;;18.73;76.93;102518.78;4999903;28;20044;-77
2021/09/04 10:08:28;;;;;;;17.83;4.65;;;20.60;99.90;;;19.58;72.14;102600.56;4987154;28;20047;-77
2021/09/04 10:14:16;;;;;;;14.20;5.13;;;21.80;99.90;;;21.21;67.51;102713.47;5007510;28;20040;-77
2021/09/04 10:17:09;;;;;;;19.30;5.43;;;22.20;99.90;;;21.44;66.50;102686.16;5016020;28;20570;-78
2021/09/04 10:19:59;;;;;;;12.88;4.45;;;21.80;99.90;;;19.89;71.50;102537.41;4999864;28;20045;-77